createdAt,value
2018-07-23T00:00:06.180Z,12.63
2018-07-23T00:02:35.620Z,13.58
2018-07-23T00:05:05.598Z,12.97
2018-07-23T00:07:41.751Z,14.23
2018-07-23T00:10:10.695Z,15.67
2018-07-23T00:12:39.640Z,13.47
2018-07-23T00:15:08.750Z,14.03
2018-07-23T00:17:38.214Z,13.40
2018-07-23T00:20:07.908Z,14.13
2018-07-23T00:22:36.622Z,14.40
2018-07-23T00:25:05.295Z,14.40
2018-07-23T00:27:35.837Z,14.43
2018-07-23T00:30:05.144Z,13.93
2018-07-23T00:32:33.935Z,14.23
2018-07-23T00:35:02.550Z,14.80
2018-07-23T00:37:31.981Z,15.30
2018-07-23T00:40:01.427Z,14.60
2018-07-23T00:42:30.419Z,14.77
2018-07-23T00:44:59.074Z,15.57
2018-07-23T00:47:28.323Z,15.50
2018-07-23T00:49:57.523Z,14.97
2018-07-23T00:52:27.169Z,15.40
2018-07-23T00:54:55.797Z,17.10
2018-07-23T00:57:26.266Z,18.07
2018-07-23T00:59:55.731Z,17.77
2018-07-23T01:02:24.487Z,19.70
2018-07-23T01:04:53.186Z,19.23
2018-07-23T01:07:22.425Z,17.93
2018-07-23T01:09:52.377Z,18.67
2018-07-23T01:12:31.299Z,17.93
2018-07-23T01:15:00.130Z,17.27
2018-07-23T01:17:29.548Z,18.27
2018-07-23T01:19:59.097Z,18.77
2018-07-23T01:22:28.235Z,18.43
2018-07-23T01:24:57.779Z,19.07
2018-07-23T01:27:27.083Z,19.70
2018-07-23T01:29:56.555Z,20.30
2018-07-23T01:32:25.215Z,20.87
2018-07-23T01:34:54.017Z,21.93
2018-07-23T01:37:23.222Z,21.17
2018-07-23T01:39:52.033Z,22.60
2018-07-23T01:42:20.729Z,22.33
2018-07-23T01:44:50.633Z,21.10
2018-07-23T01:47:19.828Z,21.20
2018-07-23T01:49:49.197Z,22.90
2018-07-23T01:52:17.909Z,24.13
2018-07-23T01:54:46.563Z,22.87
2018-07-23T01:57:15.933Z,23.33
2018-07-23T01:59:45.674Z,22.83
2018-07-23T02:02:14.880Z,23.10
2018-07-23T02:04:43.441Z,24.63
2018-07-23T02:07:12.231Z,23.90
2018-07-23T02:09:46.219Z,23.67
2018-07-23T02:12:14.977Z,25.70
2018-07-23T02:14:43.975Z,24.47
2018-07-23T02:17:12.707Z,23.10
2018-07-23T02:19:42.126Z,23.10
2018-07-23T02:22:11.603Z,24.13
2018-07-23T02:24:41.568Z,23.40
2018-07-23T02:27:10.165Z,26.10
2018-07-23T02:29:39.855Z,25.03
2018-07-23T02:32:08.730Z,25.33
2018-07-23T02:34:37.585Z,21.90
2018-07-23T02:37:06.416Z,20.87
2018-07-23T02:39:36.175Z,21.27
2018-07-23T02:42:05.791Z,22.97
2018-07-23T02:44:35.209Z,23.70
2018-07-23T02:47:03.861Z,24.53
2018-07-23T02:49:33.110Z,24.07
2018-07-23T02:52:02.551Z,23.57
2018-07-23T02:54:31.360Z,24.67
2018-07-23T02:56:59.826Z,23.93
2018-07-23T02:59:30.003Z,26.03
2018-07-23T03:01:59.445Z,24.27
2018-07-23T03:04:27.974Z,24.10
2018-07-23T03:06:56.811Z,23.70
2018-07-23T03:09:27.108Z,24.00
2018-07-23T03:11:56.571Z,24.33
2018-07-23T03:14:26.029Z,24.97
2018-07-23T03:16:54.791Z,26.47
2018-07-23T03:19:22.655Z,23.70
2018-07-23T03:21:52.554Z,24.60
2018-07-23T03:24:21.063Z,23.23
2018-07-23T03:26:51.625Z,25.90
2018-07-23T03:29:21.877Z,24.30
2018-07-23T03:31:52.141Z,26.27
2018-07-23T03:34:22.983Z,25.40
2018-07-23T03:36:51.869Z,23.30
2018-07-23T03:39:21.178Z,25.20
2018-07-23T03:41:50.647Z,23.73
2018-07-23T03:44:19.442Z,24.67
2018-07-23T03:46:48.072Z,24.57
2018-07-23T03:49:17.445Z,23.53
2018-07-23T03:51:46.918Z,22.73
2018-07-23T03:54:15.515Z,21.83
2018-07-23T03:56:44.219Z,22.50
2018-07-23T03:59:13.362Z,25.70
2018-07-23T04:01:42.747Z,23.67
2018-07-23T04:04:16.094Z,24.77
2018-07-23T04:06:46.335Z,24.93
2018-07-23T04:09:15.992Z,22.37
2018-07-23T04:11:45.772Z,23.03
2018-07-23T04:14:14.882Z,21.87
2018-07-23T04:16:43.558Z,21.33
2018-07-23T04:19:13.006Z,23.23
2018-07-23T04:21:43.366Z,23.80
2018-07-23T04:24:13.730Z,21.93
2018-07-23T04:26:42.417Z,22.40
2018-07-23T04:29:11.112Z,22.20
2018-07-23T04:31:40.438Z,21.60
2018-07-23T04:34:09.572Z,18.63
2018-07-23T04:36:38.099Z,19.80
2018-07-23T04:39:07.082Z,23.10
2018-07-23T04:41:36.763Z,23.10
2018-07-23T04:44:06.199Z,21.00
2018-07-23T04:46:35.128Z,23.27
2018-07-23T04:49:04.772Z,21.10
2018-07-23T04:51:34.434Z,24.07
2018-07-23T04:54:03.754Z,23.77
2018-07-23T04:56:32.462Z,24.23
2018-07-23T05:03:41.057Z,22.30
2018-07-23T05:16:00.887Z,26.15
2018-07-23T05:18:30.767Z,26.73
2018-07-23T05:20:59.719Z,25.80
2018-07-23T05:23:30.398Z,23.85
2018-07-23T12:00:36.864Z,6.80
2018-07-23T12:03:07.523Z,7.17
2018-07-23T12:05:40.136Z,5.78
2018-07-23T12:08:11.416Z,6.65
2018-07-23T12:10:44.134Z,8.95
2018-07-23T12:13:16.270Z,5.75
2018-07-23T12:15:49.142Z,10.85
2018-07-23T12:18:20.897Z,5.60
2018-07-23T12:20:53.816Z,6.03
2018-07-23T12:23:25.792Z,5.77
2018-07-23T12:25:57.430Z,5.97
2018-07-23T12:28:29.372Z,9.27
2018-07-23T12:31:00.728Z,5.60
2018-07-23T12:33:31.579Z,6.00
2018-07-23T12:36:03.347Z,5.90
2018-07-23T12:38:38.581Z,5.90
2018-07-23T12:41:10.758Z,5.65
2018-07-23T12:43:44.474Z,5.72
2018-07-23T12:46:15.724Z,6.35
2018-07-23T12:48:47.774Z,6.10
2018-07-23T12:51:19.526Z,5.67
2018-07-23T12:53:52.625Z,5.87
2018-07-23T12:56:32.776Z,5.75
2018-07-23T13:02:05.011Z,5.97
2018-07-23T13:04:40.182Z,5.50
2018-07-23T13:07:12.942Z,5.20
2018-07-23T13:09:45.084Z,7.13
2018-07-23T13:12:17.437Z,5.72
2018-07-23T13:14:51.696Z,5.90
2018-07-23T13:17:26.442Z,7.10
2018-07-23T13:19:59.982Z,6.17
2018-07-23T13:22:32.503Z,5.87
2018-07-23T13:25:05.744Z,9.37
2018-07-23T13:27:39.757Z,5.20
2018-07-23T13:30:11.904Z,6.23
2018-07-23T13:32:44.932Z,5.77
2018-07-23T13:35:16.554Z,5.30
2018-07-23T13:37:48.446Z,5.40
2018-07-23T13:40:20.641Z,5.83
2018-07-23T13:42:50.972Z,5.27
2018-07-23T13:45:22.463Z,5.43
2018-07-23T13:58:30.728Z,6.37
2018-07-23T14:01:19.301Z,4.40
2018-07-23T14:03:50.887Z,5.08
2018-07-23T14:06:23.598Z,4.62
2018-07-23T14:08:56.083Z,5.22
2018-07-23T14:11:28.416Z,5.95
2018-07-23T14:14:01.531Z,5.10
2018-07-23T14:16:57.183Z,5.40
2018-07-23T14:19:30.435Z,5.60
2018-07-23T14:22:04.296Z,4.70
2018-07-23T14:24:37.257Z,4.58
2018-07-23T14:27:09.198Z,4.70
2018-07-23T14:29:42.038Z,5.03
2018-07-23T14:32:14.949Z,4.70
2018-07-23T14:34:47.375Z,5.55
2018-07-23T14:37:20.335Z,5.30
2018-07-23T14:39:52.265Z,4.72
2018-07-23T14:42:25.716Z,4.92
2018-07-23T14:45:00.884Z,4.62
2018-07-23T14:47:47.632Z,4.42
2018-07-23T14:50:37.536Z,4.60
2018-07-23T14:53:11.241Z,4.80
2018-07-23T14:55:45.249Z,5.42
2018-07-23T14:58:19.652Z,4.92
2018-07-23T15:00:55.903Z,5.47
2018-07-23T15:03:27.918Z,4.95
2018-07-23T15:06:00.942Z,5.12
2018-07-23T15:08:33.187Z,6.05
2018-07-23T15:11:05.113Z,5.62
2018-07-23T15:13:37.555Z,4.62
2018-07-23T15:16:16.080Z,4.95
2018-07-23T15:18:59.657Z,4.60
2018-07-23T15:21:34.621Z,5.25
2018-07-23T15:24:09.085Z,4.92
2018-07-23T15:26:42.078Z,4.40
2018-07-23T15:29:16.198Z,4.37
2018-07-23T15:31:54.833Z,4.70
2018-07-23T15:34:27.340Z,4.80
2018-07-23T15:36:59.353Z,6.33
2018-07-23T15:39:32.892Z,6.05
2018-07-23T15:42:05.245Z,6.95
2018-07-23T15:44:44.769Z,5.53
2018-07-23T15:47:16.928Z,4.78
2018-07-23T15:49:56.464Z,4.97
2018-07-23T15:52:30.652Z,4.75
2018-07-23T15:55:03.175Z,6.00
2018-07-23T15:57:34.417Z,5.25
2018-07-23T16:00:07.307Z,4.90
2018-07-23T16:02:38.966Z,7.33
2018-07-23T16:05:11.947Z,4.60
2018-07-23T16:07:44.264Z,4.60
2018-07-23T16:10:16.382Z,5.78
2018-07-23T16:12:48.247Z,5.05
2018-07-23T16:15:20.820Z,8.50
2018-07-23T16:30:55.483Z,5.10
2018-07-23T16:33:27.069Z,5.42
2018-07-23T16:35:59.283Z,4.85
2018-07-23T16:38:31.348Z,7.10
2018-07-23T16:41:03.529Z,5.72
2018-07-23T16:43:35.328Z,4.47
2018-07-23T16:46:07.521Z,5.72
2018-07-23T16:48:39.883Z,5.12
2018-07-23T16:51:13.006Z,4.25
2018-07-23T16:53:45.180Z,4.47
2018-07-23T16:56:17.470Z,4.33
2018-07-23T16:58:49.505Z,5.17
2018-07-23T17:01:21.832Z,5.87
2018-07-23T17:03:54.495Z,4.33
2018-07-23T17:06:26.317Z,3.87
2018-07-23T17:08:58.241Z,5.20
2018-07-23T17:11:30.790Z,4.95
2018-07-23T17:14:03.595Z,4.15
2018-07-23T17:16:35.625Z,3.90
2018-07-23T17:19:07.739Z,3.80
2018-07-23T17:21:40.391Z,3.92
2018-07-23T17:24:12.519Z,4.37
2018-07-23T17:26:44.353Z,5.45
2018-07-23T17:29:17.538Z,6.20
2018-07-23T17:31:50.256Z,5.45
2018-07-23T17:34:22.241Z,3.90
2018-07-23T17:36:54.680Z,3.95
2018-07-23T17:39:27.401Z,3.90
2018-07-23T17:42:00.239Z,4.60
2018-07-23T17:44:31.995Z,4.15
2018-07-23T17:47:04.343Z,4.37
2018-07-23T17:49:36.957Z,6.85
2018-07-23T17:52:08.403Z,4.42
2018-07-23T17:54:40.771Z,5.65
2018-07-23T17:57:14.273Z,4.20
2018-07-23T17:59:47.107Z,7.12
2018-07-23T18:02:18.789Z,6.28
2018-07-23T18:04:50.624Z,4.55
2018-07-23T18:07:23.619Z,6.08
2018-07-23T18:09:55.741Z,6.70
2018-07-23T18:12:29.297Z,6.65
2018-07-23T18:15:01.184Z,4.60
2018-07-23T18:17:34.488Z,4.80
2018-07-23T18:20:07.682Z,9.65
2018-07-23T18:22:39.589Z,5.65
2018-07-23T18:25:12.234Z,4.92
2018-07-23T18:27:44.967Z,5.90
2018-07-23T18:30:18.151Z,7.00
2018-07-23T18:32:50.093Z,5.47
2018-07-23T18:35:22.088Z,7.58
2018-07-23T18:37:54.775Z,5.78
2018-07-23T18:40:26.569Z,8.43
2018-07-23T18:42:59.134Z,6.03
2018-07-23T18:45:31.808Z,6.90
2018-07-23T18:48:09.518Z,6.10
2018-07-23T18:50:41.457Z,5.00
2018-07-23T18:53:21.795Z,5.00
2018-07-23T18:55:54.496Z,4.60
2018-07-23T18:58:27.503Z,8.03
2018-07-23T19:00:59.441Z,5.00
2018-07-23T19:03:31.443Z,5.25
2018-07-23T19:06:04.457Z,5.72
2018-07-23T19:08:36.788Z,5.92
2018-07-23T19:11:08.993Z,5.30
2018-07-23T19:13:40.222Z,5.35
2018-07-23T19:16:11.549Z,5.75
2018-07-23T19:18:43.758Z,7.17
2018-07-23T19:21:16.657Z,7.22
2018-07-23T19:23:48.908Z,6.08
2018-07-23T19:26:20.993Z,6.50
2018-07-23T19:28:53.777Z,6.22
2018-07-23T19:31:26.852Z,6.47
2018-07-23T19:34:01.179Z,6.20
2018-07-23T19:36:32.819Z,6.15
2018-07-23T19:39:07.092Z,6.12
2018-07-23T19:41:39.726Z,8.60
2018-07-23T19:44:13.223Z,8.60
2018-07-23T19:46:45.279Z,9.73
2018-07-23T19:49:18.078Z,8.25
2018-07-23T19:51:51.094Z,9.45
2018-07-23T19:54:23.175Z,8.40
2018-07-23T19:56:55.067Z,9.65
2018-07-23T19:59:28.100Z,10.68
2018-07-23T20:02:00.810Z,9.98
2018-07-23T20:04:32.823Z,9.63
2018-07-23T20:07:05.673Z,11.33
2018-07-23T20:09:38.341Z,16.73
2018-07-23T20:12:10.578Z,10.80
2018-07-23T20:14:42.433Z,12.23
2018-07-23T20:17:14.561Z,23.07
2018-07-23T20:19:45.867Z,22.35
2018-07-23T20:22:17.207Z,11.70
2018-07-23T20:24:50.709Z,23.32
2018-07-23T20:27:23.322Z,10.50
2018-07-23T20:29:55.553Z,18.52
2018-07-23T20:32:27.552Z,9.75
2018-07-23T20:34:59.044Z,14.83
2018-07-23T20:37:36.167Z,17.27
2018-07-23T20:40:08.819Z,15.87
2018-07-23T20:42:40.315Z,10.33
2018-07-23T20:45:12.399Z,17.87
2018-07-23T20:47:44.429Z,37.37
2018-07-23T20:50:17.481Z,24.10
2018-07-23T20:52:49.669Z,23.37
2018-07-23T20:55:22.047Z,21.03
2018-07-23T20:57:54.427Z,35.53
2018-07-23T21:00:26.215Z,33.33
2018-07-23T21:02:57.707Z,33.63
2018-07-23T21:05:29.834Z,30.83
2018-07-23T21:08:01.799Z,26.37
2018-07-23T21:10:33.068Z,23.37
2018-07-23T21:13:04.665Z,19.97
2018-07-23T21:15:36.741Z,25.07
2018-07-23T21:18:08.433Z,22.10
2018-07-23T21:20:40.313Z,16.83
2018-07-23T21:23:11.669Z,14.83
2018-07-23T21:25:43.056Z,18.37
2018-07-23T21:28:14.427Z,11.80
2018-07-23T21:30:46.048Z,17.13
2018-07-23T21:33:17.683Z,10.67
2018-07-23T21:35:49.061Z,8.27
2018-07-23T21:38:21.636Z,7.97
2018-07-23T21:40:53.059Z,8.83
2018-07-23T21:43:24.879Z,9.93
2018-07-23T21:45:56.428Z,8.63
2018-07-23T21:48:28.109Z,8.07
2018-07-23T21:50:59.668Z,9.47
2018-07-23T21:53:31.781Z,11.17
2018-07-23T21:56:04.535Z,9.57
2018-07-23T21:58:35.974Z,8.40
2018-07-23T22:01:07.734Z,8.63
2018-07-23T22:03:39.460Z,9.50
2018-07-23T22:06:11.205Z,9.77
2018-07-23T22:08:42.482Z,8.67
2018-07-23T22:11:14.008Z,12.90
2018-07-23T22:13:45.379Z,8.57
2018-07-23T22:16:16.973Z,8.90
2018-07-23T22:18:48.293Z,8.43
2018-07-23T22:21:19.755Z,9.00
2018-07-23T22:23:51.739Z,8.87
2018-07-23T22:26:23.441Z,9.40
2018-07-23T22:28:54.734Z,14.57
2018-07-23T22:31:26.149Z,8.93
2018-07-23T22:33:58.240Z,9.60
2018-07-23T22:36:29.545Z,8.33
2018-07-23T22:39:00.849Z,8.67
2018-07-23T22:41:31.177Z,8.87
2018-07-23T22:44:03.825Z,9.33
2018-07-23T22:46:34.899Z,8.20
2018-07-23T22:49:06.153Z,7.87
2018-07-23T22:51:37.351Z,8.87
2018-07-23T22:54:10.019Z,7.90
2018-07-23T22:56:41.136Z,8.57
2018-07-23T22:59:12.379Z,8.33
2018-07-23T23:01:42.869Z,10.53
2018-07-23T23:04:13.948Z,8.43
2018-07-23T23:06:46.087Z,8.10
2018-07-23T23:09:17.715Z,8.07
2018-07-23T23:11:49.633Z,8.20
2018-07-23T23:14:21.420Z,8.40
2018-07-23T23:16:52.750Z,9.47
2018-07-23T23:19:24.039Z,9.63
2018-07-23T23:21:55.943Z,9.83
2018-07-23T23:24:27.342Z,9.80
2018-07-23T23:26:58.575Z,9.43
2018-07-23T23:29:30.439Z,9.30
2018-07-23T23:32:01.796Z,8.87
2018-07-23T23:34:32.878Z,10.00
2018-07-23T23:37:04.083Z,8.70
2018-07-23T23:39:35.947Z,8.67
2018-07-23T23:42:07.655Z,9.07
2018-07-23T23:44:38.770Z,9.90
2018-07-23T23:47:10.504Z,8.97
2018-07-23T23:49:42.464Z,8.77
2018-07-23T23:52:14.325Z,9.23
2018-07-23T23:54:45.686Z,8.90
2018-07-23T23:57:17.606Z,9.50
2018-07-23T23:59:49.427Z,9.10
